sensor_id;sensor_type;location;lat;lon;timestamp;pressure;altitude;pressure_sealevel;temperature;humidity
78835;BME280;68187;42.682;23.352;2023-05-10T00:00:18;95416.50;;;9.42;83.96
78835;BME280;68187;42.682;23.352;2023-05-10T00:02:47;95434.47;;;9.50;84.00
78835;BME280;68187;42.682;23.352;2023-05-10T00:05:13;95436.03;;;9.46;83.55
78835;BME280;68187;42.682;23.352;2023-05-10T00:07:40;95433.16;;;9.47;83.29
78835;BME280;68187;42.682;23.352;2023-05-10T00:10:10;95426.28;;;9.46;83.23
78835;BME280;68187;42.682;23.352;2023-05-10T00:12:37;95427.63;;;9.49;83.48
78835;BME280;68187;42.682;23.352;2023-05-10T00:15:04;95414.63;;;9.37;83.31
78835;BME280;68187;42.682;23.352;2023-05-10T00:17:31;95417.25;;;9.37;82.52
78835;BME280;68187;42.682;23.352;2023-05-10T00:19:59;95418.03;;;9.38;82.84
78835;BME280;68187;42.682;23.352;2023-05-10T00:22:26;95400.84;;;9.30;82.56
78835;BME280;68187;42.682;23.352;2023-05-10T00:24:53;95422.78;;;9.36;82.28
78835;BME280;68187;42.682;23.352;2023-05-10T00:27:19;95407.88;;;9.24;83.02
78835;BME280;68187;42.682;23.352;2023-05-10T00:29:46;95420.09;;;9.30;83.01
78835;BME280;68187;42.682;23.352;2023-05-10T00:32:13;95423.22;;;9.27;82.59
78835;BME280;68187;42.682;23.352;2023-05-10T00:34:40;95416.31;;;9.21;82.68
78835;BME280;68187;42.682;23.352;2023-05-10T00:37:08;95414.16;;;9.18;82.92
78835;BME280;68187;42.682;23.352;2023-05-10T00:39:34;95399.84;;;9.09;82.90
78835;BME280;68187;42.682;23.352;2023-05-10T00:42:01;95415.22;;;9.17;82.97
78835;BME280;68187;42.682;23.352;2023-05-10T00:44:29;95411.84;;;9.22;82.45
78835;BME280;68187;42.682;23.352;2023-05-10T00:46:57;95412.59;;;9.17;83.13
78835;BME280;68187;42.682;23.352;2023-05-10T00:49:24;95403.53;;;9.08;82.79
78835;BME280;68187;42.682;23.352;2023-05-10T00:51:51;95404.31;;;9.09;83.10
78835;BME280;68187;42.682;23.352;2023-05-10T00:54:19;95398.75;;;9.05;82.88
78835;BME280;68187;42.682;23.352;2023-05-10T00:56:46;95395.81;;;9.02;82.96
78835;BME280;68187;42.682;23.352;2023-05-10T00:59:14;95397.16;;;9.04;83.00
78835;BME280;68187;42.682;23.352;2023-05-10T01:01:43;95389.00;;;9.06;83.04
78835;BME280;68187;42.682;23.352;2023-05-10T01:04:11;95397.75;;;9.11;83.33
78835;BME280;68187;42.682;23.352;2023-05-10T01:06:38;95406.19;;;9.13;83.07
78835;BME280;68187;42.682;23.352;2023-05-10T01:09:04;95400.16;;;9.13;83.00
78835;BME280;68187;42.682;23.352;2023-05-10T01:11:33;95401.66;;;9.09;83.08
78835;BME280;68187;42.682;23.352;2023-05-10T01:14:02;95391.09;;;9.04;82.90
78835;BME280;68187;42.682;23.352;2023-05-10T01:16:29;95400.38;;;9.11;82.42
78835;BME280;68187;42.682;23.352;2023-05-10T01:18:58;95396.88;;;9.01;82.98
78835;BME280;68187;42.682;23.352;2023-05-10T01:21:31;95389.16;;;8.94;82.21
78835;BME280;68187;42.682;23.352;2023-05-10T01:24:40;95394.16;;;8.96;81.73
78835;BME280;68187;42.682;23.352;2023-05-10T01:27:23;95392.81;;;8.93;81.50
78835;BME280;68187;42.682;23.352;2023-05-10T01:30:26;95392.22;;;8.86;82.51
78835;BME280;68187;42.682;23.352;2023-05-10T01:33:01;95395.91;;;8.85;81.95
78835;BME280;68187;42.682;23.352;2023-05-10T01:35:32;95390.38;;;8.87;82.15
78835;BME280;68187;42.682;23.352;2023-05-10T01:38:07;95395.66;;;8.87;81.84
78835;BME280;68187;42.682;23.352;2023-05-10T01:40:39;95365.25;;;8.74;82.00
78835;BME280;68187;42.682;23.352;2023-05-10T01:43:17;95379.00;;;8.81;81.58
78835;BME280;68187;42.682;23.352;2023-05-10T01:45:50;95386.66;;;8.83;83.20
78835;BME280;68187;42.682;23.352;2023-05-10T01:48:26;95375.25;;;8.77;82.23
78835;BME280;68187;42.682;23.352;2023-05-10T01:50:54;95376.88;;;8.78;82.67
78835;BME280;68187;42.682;23.352;2023-05-10T01:53:21;95372.81;;;8.71;82.56
78835;BME280;68187;42.682;23.352;2023-05-10T01:55:51;95380.53;;;8.77;82.58
78835;BME280;68187;42.682;23.352;2023-05-10T01:58:22;95362.28;;;8.71;82.11
78835;BME280;68187;42.682;23.352;2023-05-10T02:00:50;95378.44;;;8.79;82.62
78835;BME280;68187;42.682;23.352;2023-05-10T02:03:20;95382.94;;;8.79;83.66
78835;BME280;68187;42.682;23.352;2023-05-10T02:05:50;95379.97;;;8.75;82.10
78835;BME280;68187;42.682;23.352;2023-05-10T02:08:19;95370.84;;;8.61;82.42
78835;BME280;68187;42.682;23.352;2023-05-10T02:10:47;95371.53;;;8.73;82.50
78835;BME280;68187;42.682;23.352;2023-05-10T02:13:16;95366.72;;;8.65;82.14
78835;BME280;68187;42.682;23.352;2023-05-10T02:15:45;95354.53;;;8.59;81.08
78835;BME280;68187;42.682;23.352;2023-05-10T02:18:13;95379.16;;;8.70;80.21
78835;BME280;68187;42.682;23.352;2023-05-10T02:20:42;95364.22;;;8.53;80.01
78835;BME280;68187;42.682;23.352;2023-05-10T02:23:13;95380.66;;;8.66;79.26
78835;BME280;68187;42.682;23.352;2023-05-10T02:25:41;95377.84;;;8.50;78.67
78835;BME280;68187;42.682;23.352;2023-05-10T02:28:11;95390.75;;;8.52;79.00
78835;BME280;68187;42.682;23.352;2023-05-10T02:30:38;95382.75;;;8.42;79.42
78835;BME280;68187;42.682;23.352;2023-05-10T02:33:06;95396.72;;;8.42;79.55
78835;BME280;68187;42.682;23.352;2023-05-10T02:35:34;95384.47;;;8.31;79.19
78835;BME280;68187;42.682;23.352;2023-05-10T02:38:01;95374.44;;;8.28;78.74
78835;BME280;68187;42.682;23.352;2023-05-10T02:40:30;95400.19;;;8.26;77.90
78835;BME280;68187;42.682;23.352;2023-05-10T02:42:59;95397.13;;;8.18;77.72
78835;BME280;68187;42.682;23.352;2023-05-10T02:45:30;95361.00;;;7.91;75.98
78835;BME280;68187;42.682;23.352;2023-05-10T02:47:58;95385.38;;;8.04;76.92
78835;BME280;68187;42.682;23.352;2023-05-10T02:50:27;95388.41;;;7.96;76.91
78835;BME280;68187;42.682;23.352;2023-05-10T02:52:57;95387.84;;;7.93;76.93
78835;BME280;68187;42.682;23.352;2023-05-10T02:55:29;95381.97;;;7.86;77.51
78835;BME280;68187;42.682;23.352;2023-05-10T02:58:00;95376.63;;;7.81;77.19
78835;BME280;68187;42.682;23.352;2023-05-10T03:00:28;95382.75;;;7.87;77.62
78835;BME280;68187;42.682;23.352;2023-05-10T03:02:54;95373.44;;;7.79;76.22
78835;BME280;68187;42.682;23.352;2023-05-10T03:05:21;95379.34;;;7.86;76.74
78835;BME280;68187;42.682;23.352;2023-05-10T03:07:48;95369.16;;;7.73;76.41
78835;BME280;68187;42.682;23.352;2023-05-10T03:10:16;95380.22;;;7.75;75.42
78835;BME280;68187;42.682;23.352;2023-05-10T03:12:53;95360.00;;;7.59;76.92
78835;BME280;68187;42.682;23.352;2023-05-10T03:15:30;95392.81;;;7.73;76.92
78835;BME280;68187;42.682;23.352;2023-05-10T03:18:02;95390.75;;;7.75;76.68
78835;BME280;68187;42.682;23.352;2023-05-10T03:20:35;95394.19;;;7.76;76.61
78835;BME280;68187;42.682;23.352;2023-05-10T03:23:10;95372.75;;;7.67;76.03
78835;BME280;68187;42.682;23.352;2023-05-10T03:25:39;95354.91;;;7.53;75.96
78835;BME280;68187;42.682;23.352;2023-05-10T03:28:06;95378.47;;;7.64;76.83
78835;BME280;68187;42.682;23.352;2023-05-10T03:30:35;95399.50;;;7.81;77.04
78835;BME280;68187;42.682;23.352;2023-05-10T03:33:04;95386.75;;;7.73;76.08
78835;BME280;68187;42.682;23.352;2023-05-10T03:35:31;95385.47;;;7.75;75.51
78835;BME280;68187;42.682;23.352;2023-05-10T03:37:58;95395.38;;;7.85;75.35
78835;BME280;68187;42.682;23.352;2023-05-10T03:40:26;95385.72;;;7.74;74.72
78835;BME280;68187;42.682;23.352;2023-05-10T03:42:54;95384.22;;;7.78;75.00
78835;BME280;68187;42.682;23.352;2023-05-10T03:45:21;95404.06;;;7.85;75.52
78835;BME280;68187;42.682;23.352;2023-05-10T03:47:49;95400.22;;;7.76;74.65
78835;BME280;68187;42.682;23.352;2023-05-10T03:50:15;95377.75;;;7.69;75.74
78835;BME280;68187;42.682;23.352;2023-05-10T03:52:42;95402.38;;;7.79;75.20
78835;BME280;68187;42.682;23.352;2023-05-10T03:55:09;95411.38;;;7.83;75.01
78835;BME280;68187;42.682;23.352;2023-05-10T03:57:37;95410.59;;;7.83;73.82
78835;BME280;68187;42.682;23.352;2023-05-10T04:00:04;95387.56;;;7.57;74.00
78835;BME280;68187;42.682;23.352;2023-05-10T04:02:31;95407.47;;;7.69;73.96
78835;BME280;68187;42.682;23.352;2023-05-10T04:04:59;95394.88;;;7.55;74.29
78835;BME280;68187;42.682;23.352;2023-05-10T04:07:26;95418.47;;;7.66;74.88
78835;BME280;68187;42.682;23.352;2023-05-10T04:09:53;95409.47;;;7.62;75.18
78835;BME280;68187;42.682;23.352;2023-05-10T04:12:19;95422.44;;;7.69;75.02
78835;BME280;68187;42.682;23.352;2023-05-10T04:14:46;95405.78;;;7.63;74.75
78835;BME280;68187;42.682;23.352;2023-05-10T04:17:13;95411.53;;;7.60;75.01
78835;BME280;68187;42.682;23.352;2023-05-10T04:19:39;95414.00;;;7.67;75.70
78835;BME280;68187;42.682;23.352;2023-05-10T04:22:07;95415.59;;;7.68;76.11
78835;BME280;68187;42.682;23.352;2023-05-10T04:24:34;95402.22;;;7.53;75.39
78835;BME280;68187;42.682;23.352;2023-05-10T04:27:01;95416.56;;;7.62;74.92
78835;BME280;68187;42.682;23.352;2023-05-10T04:29:28;95419.28;;;7.67;75.82
78835;BME280;68187;42.682;23.352;2023-05-10T04:31:55;95407.88;;;7.61;75.37
78835;BME280;68187;42.682;23.352;2023-05-10T04:34:21;95424.28;;;7.68;74.47
78835;BME280;68187;42.682;23.352;2023-05-10T04:36:48;95417.09;;;7.64;74.82
78835;BME280;68187;42.682;23.352;2023-05-10T04:39:16;95413.63;;;7.58;74.28
78835;BME280;68187;42.682;23.352;2023-05-10T04:41:43;95413.53;;;7.53;75.11
78835;BME280;68187;42.682;23.352;2023-05-10T04:44:10;95420.53;;;7.64;75.17
78835;BME280;68187;42.682;23.352;2023-05-10T04:46:36;95414.25;;;7.65;74.85
78835;BME280;68187;42.682;23.352;2023-05-10T04:49:03;95411.53;;;7.60;75.54
78835;BME280;68187;42.682;23.352;2023-05-10T04:51:30;95412.75;;;7.69;74.90
78835;BME280;68187;42.682;23.352;2023-05-10T04:53:57;95422.38;;;7.80;74.78
78835;BME280;68187;42.682;23.352;2023-05-10T04:56:25;95419.50;;;7.82;74.14
78835;BME280;68187;42.682;23.352;2023-05-10T04:58:52;95423.09;;;7.93;73.67
78835;BME280;68187;42.682;23.352;2023-05-10T05:01:18;95420.94;;;7.89;73.75
78835;BME280;68187;42.682;23.352;2023-05-10T05:03:45;95415.13;;;7.87;73.66
78835;BME280;68187;42.682;23.352;2023-05-10T05:06:12;95408.69;;;7.78;73.87
78835;BME280;68187;42.682;23.352;2023-05-10T05:08:38;95416.31;;;7.80;73.84
78835;BME280;68187;42.682;23.352;2023-05-10T05:11:05;95430.34;;;7.85;74.24
78835;BME280;68187;42.682;23.352;2023-05-10T05:13:33;95424.59;;;7.88;74.74
78835;BME280;68187;42.682;23.352;2023-05-10T05:16:00;95432.09;;;7.97;74.50
78835;BME280;68187;42.682;23.352;2023-05-10T05:18:28;95433.13;;;7.96;74.70
78835;BME280;68187;42.682;23.352;2023-05-10T05:20:54;95435.56;;;8.02;73.95
78835;BME280;68187;42.682;23.352;2023-05-10T05:23:21;95421.25;;;7.93;74.38
78835;BME280;68187;42.682;23.352;2023-05-10T05:25:51;95421.56;;;7.97;74.04
78835;BME280;68187;42.682;23.352;2023-05-10T05:28:17;95434.13;;;8.11;74.83
78835;BME280;68187;42.682;23.352;2023-05-10T05:30:46;95431.13;;;8.03;74.20
78835;BME280;68187;42.682;23.352;2023-05-10T05:33:13;95426.91;;;8.02;75.19
78835;BME280;68187;42.682;23.352;2023-05-10T05:35:40;95434.81;;;8.02;74.17
78835;BME280;68187;42.682;23.352;2023-05-10T05:38:08;95441.38;;;8.04;74.99
78835;BME280;68187;42.682;23.352;2023-05-10T05:40:35;95444.53;;;8.01;75.04
78835;BME280;68187;42.682;23.352;2023-05-10T05:43:02;95430.47;;;7.96;74.97
78835;BME280;68187;42.682;23.352;2023-05-10T05:45:28;95444.28;;;8.03;74.18
78835;BME280;68187;42.682;23.352;2023-05-10T05:47:57;95421.50;;;7.91;74.76
78835;BME280;68187;42.682;23.352;2023-05-10T05:50:23;95445.31;;;8.02;75.14
78835;BME280;68187;42.682;23.352;2023-05-10T05:52:50;95445.31;;;8.02;75.12
78835;BME280;68187;42.682;23.352;2023-05-10T05:55:17;95449.06;;;8.06;75.43
78835;BME280;68187;42.682;23.352;2023-05-10T05:57:44;95419.75;;;7.80;74.94
78835;BME280;68187;42.682;23.352;2023-05-10T06:00:11;95453.81;;;8.09;75.43
78835;BME280;68187;42.682;23.352;2023-05-10T06:02:38;95443.78;;;8.06;75.51
78835;BME280;68187;42.682;23.352;2023-05-10T06:05:07;95445.25;;;7.97;75.41
78835;BME280;68187;42.682;23.352;2023-05-10T06:07:34;95454.88;;;8.08;75.01
78835;BME280;68187;42.682;23.352;2023-05-10T06:10:01;95455.34;;;8.05;75.05
78835;BME280;68187;42.682;23.352;2023-05-10T06:12:28;95446.91;;;8.03;75.21
78835;BME280;68187;42.682;23.352;2023-05-10T06:14:55;95457.16;;;8.04;75.27
78835;BME280;68187;42.682;23.352;2023-05-10T06:17:21;95445.78;;;7.99;73.85
78835;BME280;68187;42.682;23.352;2023-05-10T06:19:49;95452.97;;;8.03;74.48
78835;BME280;68187;42.682;23.352;2023-05-10T06:22:17;95462.22;;;8.06;73.99
78835;BME280;68187;42.682;23.352;2023-05-10T06:24:44;95465.69;;;8.11;75.46
78835;BME280;68187;42.682;23.352;2023-05-10T06:27:11;95460.69;;;8.10;73.65
78835;BME280;68187;42.682;23.352;2023-05-10T06:29:37;95462.84;;;8.13;73.95
78835;BME280;68187;42.682;23.352;2023-05-10T06:32:04;95463.88;;;8.12;73.74
78835;BME280;68187;42.682;23.352;2023-05-10T06:34:31;95469.13;;;8.12;73.62
78835;BME280;68187;42.682;23.352;2023-05-10T06:36:58;95467.84;;;8.14;73.23
78835;BME280;68187;42.682;23.352;2023-05-10T06:39:27;95467.13;;;8.19;73.06
78835;BME280;68187;42.682;23.352;2023-05-10T06:41:54;95460.03;;;8.19;73.26
78835;BME280;68187;42.682;23.352;2023-05-10T06:44:21;95459.31;;;8.24;73.76
78835;BME280;68187;42.682;23.352;2023-05-10T06:46:48;95461.34;;;8.33;72.35
78835;BME280;68187;42.682;23.352;2023-05-10T06:49:15;95462.09;;;8.34;72.42
78835;BME280;68187;42.682;23.352;2023-05-10T06:51:41;95467.16;;;8.35;72.03
78835;BME280;68187;42.682;23.352;2023-05-10T06:54:08;95461.56;;;8.32;72.24
78835;BME280;68187;42.682;23.352;2023-05-10T06:56:36;95462.69;;;8.36;71.34
78835;BME280;68187;42.682;23.352;2023-05-10T06:59:03;95455.28;;;8.33;72.04
78835;BME280;68187;42.682;23.352;2023-05-10T07:01:30;95469.06;;;8.40;73.44
78835;BME280;68187;42.682;23.352;2023-05-10T07:03:56;95471.19;;;8.43;72.13
78835;BME280;68187;42.682;23.352;2023-05-10T07:06:23;95475.16;;;8.45;72.27
78835;BME280;68187;42.682;23.352;2023-05-10T07:08:50;95441.56;;;8.31;71.27
78835;BME280;68187;42.682;23.352;2023-05-10T07:11:16;95472.88;;;8.49;71.28
78835;BME280;68187;42.682;23.352;2023-05-10T07:13:44;95471.59;;;8.51;70.67
78835;BME280;68187;42.682;23.352;2023-05-10T07:16:11;95476.06;;;8.51;70.80
78835;BME280;68187;42.682;23.352;2023-05-10T07:18:38;95459.16;;;8.47;70.85
78835;BME280;68187;42.682;23.352;2023-05-10T07:21:05;95471.09;;;8.54;69.92
78835;BME280;68187;42.682;23.352;2023-05-10T07:23:31;95469.25;;;8.55;70.45
78835;BME280;68187;42.682;23.352;2023-05-10T07:25:58;95475.88;;;8.57;70.01
78835;BME280;68187;42.682;23.352;2023-05-10T07:28:25;95478.03;;;8.60;70.75
78835;BME280;68187;42.682;23.352;2023-05-10T07:30:53;95475.50;;;8.71;69.02
78835;BME280;68187;42.682;23.352;2023-05-10T07:33:20;95476.78;;;8.68;69.30
78835;BME280;68187;42.682;23.352;2023-05-10T07:35:46;95484.41;;;8.65;69.83
78835;BME280;68187;42.682;23.352;2023-05-10T07:38:13;95477.28;;;8.65;69.14
78835;BME280;68187;42.682;23.352;2023-05-10T07:40:40;95488.44;;;8.72;69.28
78835;BME280;68187;42.682;23.352;2023-05-10T07:43:07;95490.03;;;8.73;68.84
78835;BME280;68187;42.682;23.352;2023-05-10T07:45:33;95496.41;;;8.77;69.47
78835;BME280;68187;42.682;23.352;2023-05-10T07:48:02;95487.41;;;8.73;68.84
78835;BME280;68187;42.682;23.352;2023-05-10T07:50:28;95489.56;;;8.76;69.45
78835;BME280;68187;42.682;23.352;2023-05-10T07:52:55;95480.91;;;8.81;69.45
78835;BME280;68187;42.682;23.352;2023-05-10T07:55:22;95484.41;;;8.86;69.16
78835;BME280;68187;42.682;23.352;2023-05-10T07:57:49;95484.91;;;8.83;68.19
78835;BME280;68187;42.682;23.352;2023-05-10T08:00:18;95486.25;;;8.86;69.53
78835;BME280;68187;42.682;23.352;2023-05-10T08:02:45;95495.25;;;8.90;68.53
78835;BME280;68187;42.682;23.352;2023-05-10T08:05:14;95481.47;;;8.83;68.86
78835;BME280;68187;42.682;23.352;2023-05-10T08:07:40;95483.63;;;8.86;69.51
78835;BME280;68187;42.682;23.352;2023-05-10T08:10:08;95492.97;;;8.98;67.71
78835;BME280;68187;42.682;23.352;2023-05-10T08:12:36;95489.88;;;9.01;68.75
78835;BME280;68187;42.682;23.352;2023-05-10T08:15:04;95496.28;;;9.10;67.59
78835;BME280;68187;42.682;23.352;2023-05-10T08:17:31;95496.59;;;9.14;67.04
78835;BME280;68187;42.682;23.352;2023-05-10T08:19:58;95501.06;;;9.13;68.18
78835;BME280;68187;42.682;23.352;2023-05-10T08:22:26;95491.22;;;9.04;67.32
78835;BME280;68187;42.682;23.352;2023-05-10T08:24:53;95488.00;;;9.02;67.99
78835;BME280;68187;42.682;23.352;2023-05-10T08:27:20;95494.94;;;9.08;67.11
78835;BME280;68187;42.682;23.352;2023-05-10T08:29:47;95483.53;;;9.02;67.83
78835;BME280;68187;42.682;23.352;2023-05-10T08:32:13;95498.00;;;9.21;68.73
78835;BME280;68187;42.682;23.352;2023-05-10T08:34:40;95503.88;;;9.28;68.83
78835;BME280;68187;42.682;23.352;2023-05-10T08:37:07;95504.91;;;9.27;67.71
78835;BME280;68187;42.682;23.352;2023-05-10T08:39:36;95497.00;;;9.27;68.43
78835;BME280;68187;42.682;23.352;2023-05-10T08:42:04;95503.88;;;9.28;69.00
78835;BME280;68187;42.682;23.352;2023-05-10T08:44:32;95511.28;;;9.31;68.46
78835;BME280;68187;42.682;23.352;2023-05-10T08:47:03;95505.16;;;9.26;70.29
78835;BME280;68187;42.682;23.352;2023-05-10T08:49:31;95506.19;;;9.25;70.14
78835;BME280;68187;42.682;23.352;2023-05-10T08:51:59;95493.16;;;9.13;69.37
78835;BME280;68187;42.682;23.352;2023-05-10T08:54:28;95471.44;;;9.01;71.04
78835;BME280;68187;42.682;23.352;2023-05-10T08:56:57;95498.00;;;9.21;70.43
78835;BME280;68187;42.682;23.352;2023-05-10T08:59:25;95492.41;;;9.18;69.90
78835;BME280;68187;42.682;23.352;2023-05-10T09:01:52;95494.09;;;9.24;71.47
78835;BME280;68187;42.682;23.352;2023-05-10T09:04:21;95496.94;;;9.22;69.92
78835;BME280;68187;42.682;23.352;2023-05-10T09:06:47;95503.97;;;9.39;70.67
78835;BME280;68187;42.682;23.352;2023-05-10T09:09:15;95502.69;;;9.41;69.74
78835;BME280;68187;42.682;23.352;2023-05-10T09:11:44;95499.75;;;9.38;70.25
78835;BME280;68187;42.682;23.352;2023-05-10T09:14:13;95502.41;;;9.38;69.68
78835;BME280;68187;42.682;23.352;2023-05-10T09:16:41;95503.13;;;9.33;69.32
78835;BME280;68187;42.682;23.352;2023-05-10T09:19:08;95496.25;;;9.32;69.23
78835;BME280;68187;42.682;23.352;2023-05-10T09:21:35;95493.63;;;9.32;69.19
78835;BME280;68187;42.682;23.352;2023-05-10T09:24:04;95489.22;;;9.38;69.45
78835;BME280;68187;42.682;23.352;2023-05-10T09:26:31;95488.97;;;9.39;69.33
78835;BME280;68187;42.682;23.352;2023-05-10T09:28:59;95484.09;;;9.53;69.57
78835;BME280;68187;42.682;23.352;2023-05-10T09:31:44;95489.38;;;9.53;69.20
78835;BME280;68187;42.682;23.352;2023-05-10T09:34:15;95486.28;;;9.61;70.05
78835;BME280;68187;42.682;23.352;2023-05-10T09:36:51;95492.13;;;9.63;69.49
78835;BME280;68187;42.682;23.352;2023-05-10T09:39:18;95487.06;;;9.61;69.47
78835;BME280;68187;42.682;23.352;2023-05-10T09:41:44;95485.78;;;9.64;70.06
78835;BME280;68187;42.682;23.352;2023-05-10T09:44:11;95477.03;;;9.58;69.60
78835;BME280;68187;42.682;23.352;2023-05-10T09:46:38;95466.19;;;9.55;69.95
78835;BME280;68187;42.682;23.352;2023-05-10T09:49:06;95480.81;;;9.67;69.01
78835;BME280;68187;42.682;23.352;2023-05-10T09:51:34;95475.22;;;9.64;68.49
78835;BME280;68187;42.682;23.352;2023-05-10T09:54:11;95475.00;;;9.65;68.02
78835;BME280;68187;42.682;23.352;2023-05-10T09:56:39;95465.69;;;9.58;67.78
78835;BME280;68187;42.682;23.352;2023-05-10T09:59:07;95478.41;;;9.66;67.72
78835;BME280;68187;42.682;23.352;2023-05-10T10:01:34;95472.84;;;9.62;66.89
78835;BME280;68187;42.682;23.352;2023-05-10T10:04:02;95469.47;;;9.67;68.11
78835;BME280;68187;42.682;23.352;2023-05-10T10:06:35;95452.84;;;9.66;67.09
78835;BME280;68187;42.682;23.352;2023-05-10T10:09:02;95457.91;;;9.73;67.73
78835;BME280;68187;42.682;23.352;2023-05-10T10:11:29;95453.47;;;9.78;67.71
78835;BME280;68187;42.682;23.352;2023-05-10T10:13:56;95442.88;;;9.73;66.57
78835;BME280;68187;42.682;23.352;2023-05-10T10:16:23;95423.34;;;9.69;66.57
78835;BME280;68187;42.682;23.352;2023-05-10T10:18:50;95448.78;;;9.85;66.73
78835;BME280;68187;42.682;23.352;2023-05-10T10:21:17;95449.06;;;9.89;66.58
78835;BME280;68187;42.682;23.352;2023-05-10T10:23:46;95452.78;;;9.88;66.91
78835;BME280;68187;42.682;23.352;2023-05-10T10:26:13;95442.25;;;9.93;66.10
78835;BME280;68187;42.682;23.352;2023-05-10T10:28:49;95450.25;;;10.03;66.07
78835;BME280;68187;42.682;23.352;2023-05-10T10:31:26;95440.28;;;10.10;65.52
78835;BME280;68187;42.682;23.352;2023-05-10T10:34:00;95445.91;;;10.19;65.85
78835;BME280;68187;42.682;23.352;2023-05-10T10:36:28;95447.84;;;10.33;65.92
78835;BME280;68187;42.682;23.352;2023-05-10T10:38:58;95436.75;;;10.36;65.43
78835;BME280;68187;42.682;23.352;2023-05-10T10:41:33;95446.09;;;10.49;65.46
78835;BME280;68187;42.682;23.352;2023-05-10T10:44:26;95451.66;;;10.52;65.45
78835;BME280;68187;42.682;23.352;2023-05-10T10:47:00;95447.66;;;10.45;64.16
78835;BME280;68187;42.682;23.352;2023-05-10T10:49:28;95395.75;;;10.19;65.30
78835;BME280;68187;42.682;23.352;2023-05-10T10:52:15;95450.06;;;10.51;64.77
78835;BME280;68187;42.682;23.352;2023-05-10T10:54:49;95427.53;;;10.39;64.52
78835;BME280;68187;42.682;23.352;2023-05-10T10:57:18;95455.31;;;10.46;64.51
78835;BME280;68187;42.682;23.352;2023-05-10T10:59:45;95438.06;;;10.34;64.39
78835;BME280;68187;42.682;23.352;2023-05-10T11:02:32;95429.56;;;10.22;64.52
78835;BME280;68187;42.682;23.352;2023-05-10T11:04:59;95421.00;;;10.10;64.49
78835;BME280;68187;42.682;23.352;2023-05-10T11:07:27;95450.25;;;10.40;64.89
78835;BME280;68187;42.682;23.352;2023-05-10T11:09:55;95448.44;;;10.45;64.75
78835;BME280;68187;42.682;23.352;2023-05-10T11:12:30;95414.34;;;10.39;64.92
78835;BME280;68187;42.682;23.352;2023-05-10T11:14:57;95442.22;;;10.66;64.58
78835;BME280;68187;42.682;23.352;2023-05-10T11:17:24;95445.91;;;10.65;64.90
78835;BME280;68187;42.682;23.352;2023-05-10T11:20:10;95422.63;;;10.57;63.93
78835;BME280;68187;42.682;23.352;2023-05-10T11:22:52;95443.59;;;10.74;65.04
78835;BME280;68187;42.682;23.352;2023-05-10T11:25:26;95420.25;;;10.61;64.31
78835;BME280;68187;42.682;23.352;2023-05-10T11:27:53;95453.91;;;10.81;63.83
78835;BME280;68187;42.682;23.352;2023-05-10T11:30:20;95435.59;;;10.64;63.85
78835;BME280;68187;42.682;23.352;2023-05-10T11:32:47;95439.53;;;10.61;64.75
78835;BME280;68187;42.682;23.352;2023-05-10T11:35:14;95451.19;;;10.65;64.16
78835;BME280;68187;42.682;23.352;2023-05-10T11:37:41;95414.94;;;10.51;65.16
78835;BME280;68187;42.682;23.352;2023-05-10T11:40:10;95451.00;;;10.82;64.61
78835;BME280;68187;42.682;23.352;2023-05-10T11:42:38;95433.81;;;10.80;64.68
78835;BME280;68187;42.682;23.352;2023-05-10T11:45:06;95447.09;;;10.90;64.80
78835;BME280;68187;42.682;23.352;2023-05-10T11:47:33;95437.53;;;10.84;64.59
78835;BME280;68187;42.682;23.352;2023-05-10T11:50:02;95424.25;;;10.68;64.32
78835;BME280;68187;42.682;23.352;2023-05-10T11:52:35;95447.53;;;10.71;64.49
78835;BME280;68187;42.682;23.352;2023-05-10T11:55:03;95441.38;;;10.61;65.92
78835;BME280;68187;42.682;23.352;2023-05-10T11:57:30;95436.94;;;10.66;65.18
78835;BME280;68187;42.682;23.352;2023-05-10T11:59:59;95406.97;;;10.46;65.87
78835;BME280;68187;42.682;23.352;2023-05-10T12:02:26;95430.56;;;10.62;66.94
78835;BME280;68187;42.682;23.352;2023-05-10T12:04:53;95433.47;;;10.61;64.94
78835;BME280;68187;42.682;23.352;2023-05-10T12:07:21;95447.00;;;10.69;65.88
78835;BME280;68187;42.682;23.352;2023-05-10T12:10:03;95441.44;;;10.71;65.63
78835;BME280;68187;42.682;23.352;2023-05-10T12:12:36;95417.59;;;10.61;64.99
78835;BME280;68187;42.682;23.352;2023-05-10T12:15:05;95432.47;;;10.72;65.55
78835;BME280;68187;42.682;23.352;2023-05-10T12:17:37;95426.91;;;10.68;65.68
78835;BME280;68187;42.682;23.352;2023-05-10T12:20:15;95407.88;;;10.66;65.59
78835;BME280;68187;42.682;23.352;2023-05-10T12:22:45;95435.88;;;10.72;65.88
78835;BME280;68187;42.682;23.352;2023-05-10T12:25:11;95422.94;;;10.71;65.60
78835;BME280;68187;42.682;23.352;2023-05-10T12:27:38;95429.88;;;10.82;65.01
78835;BME280;68187;42.682;23.352;2023-05-10T12:30:08;95426.97;;;10.89;64.77
78835;BME280;68187;42.682;23.352;2023-05-10T12:32:41;95423.22;;;10.74;64.59
78835;BME280;68187;42.682;23.352;2023-05-10T12:35:08;95404.16;;;10.62;65.34
78835;BME280;68187;42.682;23.352;2023-05-10T12:37:35;95426.41;;;10.82;64.89
78835;BME280;68187;42.682;23.352;2023-05-10T12:40:06;95412.16;;;10.83;65.56
78835;BME280;68187;42.682;23.352;2023-05-10T12:42:34;95391.00;;;10.77;64.51
78835;BME280;68187;42.682;23.352;2023-05-10T12:45:02;95417.50;;;10.98;64.03
78835;BME280;68187;42.682;23.352;2023-05-10T12:47:31;95404.81;;;10.90;63.85
78835;BME280;68187;42.682;23.352;2023-05-10T12:50:00;95395.75;;;10.75;64.41
78835;BME280;68187;42.682;23.352;2023-05-10T12:52:28;95404.22;;;10.77;64.60
78835;BME280;68187;42.682;23.352;2023-05-10T12:54:55;95411.09;;;10.84;63.87
78835;BME280;68187;42.682;23.352;2023-05-10T12:57:22;95401.06;;;10.81;64.55
78835;BME280;68187;42.682;23.352;2023-05-10T12:59:48;95408.75;;;10.87;64.97
78835;BME280;68187;42.682;23.352;2023-05-10T13:02:15;95392.63;;;10.89;64.28
78835;BME280;68187;42.682;23.352;2023-05-10T13:04:44;95401.09;;;10.91;64.18